Time;durP1;ratioP1;P1;durP2;ratioP2;P2;SDS_P1;SDS_P2;PMS_P1;PMS_P2;Temp;Humidity;BMP_temperature;BMP_pressure;BME280_temperature;BME280_humidity;BME280_pressure;Samples;Min_cycle;Max_cycle;Signal;HPM_P1;HPM_P2
2023/08/12 00:01:08;;;;;;;7.60;2.60;;;;;;;;;;5054096;28;20215;-74
2023/08/12 00:04:14;;;;;;;2.87;2.57;;;;;;;;;;5041944;28;20528;-74
2023/08/12 00:07:18;;;;;;;6.03;3.00;;;;;;;;;;5054064;28;20176;-74
2023/08/12 00:10:22;;;;;;;2.97;2.57;;;;;;;;;;5041827;28;20180;-74
2023/08/12 00:13:26;;;;;;;8.23;2.20;;;;;;;;;;5053976;28;20208;-74
2023/08/12 00:16:32;;;;;;;3.73;2.30;;;;;;;;;;5053967;28;20195;-73
2023/08/12 00:19:36;;;;;;;3.40;2.33;;;;;;;;;;5030349;28;20200;-74
2023/08/12 00:22:40;;;;;;;3.13;2.50;;;;;;;;;;5041545;28;20693;-74
2023/08/12 00:25:44;;;;;;;3.83;2.47;;;;;;;;;;5054075;28;20184;-74
2023/08/12 00:28:48;;;;;;;5.50;2.53;;;;;;;;;;5041470;28;20180;-74
2023/08/12 00:31:52;;;;;;;3.50;2.50;;;;;;;;;;5030234;28;20216;-74
2023/08/12 00:34:57;;;;;;;4.37;2.53;;;;;;;;;;5041642;28;20172;-74
2023/08/12 00:38:01;;;;;;;6.50;2.90;;;;;;;;;;5030135;28;20191;-74
2023/08/12 00:41:05;;;;;;;5.00;2.20;;;;;;;;;;5030031;28;20211;-74
2023/08/12 00:44:10;;;;;;;4.30;2.53;;;;;;;;;;5029834;28;20168;-75
2023/08/12 00:47:14;;;;;;;3.17;2.50;;;;;;;;;;5041128;28;20180;-76
2023/08/12 00:50:19;;;;;;;2.90;2.50;;;;;;;;;;5041243;28;20639;-76
2023/08/12 00:53:23;;;;;;;4.93;2.60;;;;;;;;;;5041183;28;20204;-76
2023/08/12 00:56:27;;;;;;;4.87;2.40;;;;;;;;;;5041202;28;20184;-76
2023/08/12 00:59:32;;;;;;;4.80;2.50;;;;;;;;;;5053498;28;20188;-75
2023/08/12 01:02:36;;;;;;;3.93;2.50;;;;;;;;;;5040808;28;20220;-75
2023/08/12 01:05:42;;;;;;;3.33;2.40;;;;;;;;;;5053050;28;20176;-76
2023/08/12 01:08:48;;;;;;;3.63;2.53;;;;;;;;;;5052911;28;20176;-76
2023/08/12 01:12:01;;;;;;;2.90;2.60;;;;;;;;;;5052130;28;20686;-76
2023/08/12 01:15:23;;;;;;;3.43;2.50;;;;;;;;;;5040733;28;20172;-76
2023/08/12 01:18:28;;;;;;;2.80;2.40;;;;;;;;;;5053547;28;20184;-75
2023/08/12 01:21:33;;;;;;;5.80;2.67;;;;;;;;;;5029145;28;20219;-76
2023/08/12 01:24:39;;;;;;;5.30;2.57;;;;;;;;;;5040693;28;20180;-75
2023/08/12 01:27:43;;;;;;;4.17;2.70;;;;;;;;;;5041621;28;20204;-76
2023/08/12 01:31:30;;;;;;;9.33;3.03;;;;;;;;;;5040489;28;20215;-75
2023/08/12 01:34:44;;;;;;;4.80;2.80;;;;;;;;;;5040745;28;20216;-76
2023/08/12 01:37:52;;;;;;;3.43;2.80;;;;;;;;;;5029418;28;20627;-76
2023/08/12 01:40:57;;;;;;;3.80;2.63;;;;;;;;;;5040685;28;20219;-76
2023/08/12 01:44:02;;;;;;;12.77;3.47;;;;;;;;;;5053011;28;20180;-75
2023/08/12 01:47:09;;;;;;;4.67;2.77;;;;;;;;;;5040768;28;20173;-75
2023/08/12 01:50:13;;;;;;;3.43;2.67;;;;;;;;;;5040617;28;20177;-75
2023/08/12 01:53:18;;;;;;;2.97;2.67;;;;;;;;;;5029369;28;20208;-75
2023/08/12 01:56:22;;;;;;;3.13;2.50;;;;;;;;;;5040417;28;20185;-75
2023/08/12 01:59:26;;;;;;;3.07;2.53;;;;;;;;;;5029287;28;20181;-76
2023/08/12 02:02:30;;;;;;;3.00;2.50;;;;;;;;;;5040355;28;20207;-76
2023/08/12 02:05:36;;;;;;;5.70;2.83;;;;;;;;;;5040312;28;20185;-76
2023/08/12 02:08:41;;;;;;;6.17;2.77;;;;;;;;;;5040226;28;20184;-75
2023/08/12 02:11:45;;;;;;;4.43;2.63;;;;;;;;;;5052389;28;20215;-75
2023/08/12 02:14:49;;;;;;;2.87;2.63;;;;;;;;;;5052684;28;20208;-75
2023/08/12 02:17:54;;;;;;;3.60;3.10;;;;;;;;;;5040203;28;20536;-75
2023/08/12 02:20:57;;;;;;;5.83;3.03;;;;;;;;;;5041812;28;20207;-76
2023/08/12 02:24:02;;;;;;;4.57;2.90;;;;;;;;;;5043852;28;20176;-75
2023/08/12 02:27:06;;;;;;;6.37;2.73;;;;;;;;;;5055976;28;20196;-76
2023/08/12 02:30:11;;;;;;;2.70;2.43;;;;;;;;;;5032589;28;20180;-76
2023/08/12 02:33:15;;;;;;;3.37;2.57;;;;;;;;;;5032391;28;20188;-76
2023/08/12 02:36:19;;;;;;;3.23;2.93;;;;;;;;;;5055821;28;20176;-75
2023/08/12 02:39:24;;;;;;;3.07;2.77;;;;;;;;;;5043531;28;20180;-76
2023/08/12 02:42:28;;;;;;;4.17;2.60;;;;;;;;;;5043053;28;20212;-76
2023/08/12 02:45:32;;;;;;;4.03;2.93;;;;;;;;;;5023386;28;20200;-76
2023/08/12 02:48:36;;;;;;;4.30;3.03;;;;;;;;;;5023465;28;20196;-76
2023/08/12 02:51:40;;;;;;;5.80;3.13;;;;;;;;;;5012087;28;20691;-76
2023/08/12 02:54:45;;;;;;;3.37;2.97;;;;;;;;;;5023245;28;20220;-76
2023/08/12 02:57:49;;;;;;;4.10;3.07;;;;;;;;;;5023285;28;20200;-76
2023/08/12 03:00:54;;;;;;;5.07;2.80;;;;;;;;;;5023176;28;20220;-76
2023/08/12 03:03:58;;;;;;;4.63;3.10;;;;;;;;;;5035654;28;20180;-76
2023/08/12 03:07:02;;;;;;;4.53;3.00;;;;;;;;;;5023228;28;20177;-75
2023/08/12 03:10:07;;;;;;;4.33;3.13;;;;;;;;;;5012101;28;20177;-76
2023/08/12 03:13:11;;;;;;;3.27;2.70;;;;;;;;;;5023547;28;20181;-76
2023/08/12 03:16:16;;;;;;;4.93;2.77;;;;;;;;;;5023204;28;20181;-76
2023/08/12 03:19:23;;;;;;;4.57;2.97;;;;;;;;;;5011542;28;20537;-76
2023/08/12 03:22:27;;;;;;;4.87;3.30;;;;;;;;;;5011515;28;20216;-76
2023/08/12 03:25:32;;;;;;;4.33;2.80;;;;;;;;;;5023122;28;20177;-76
2023/08/12 03:28:36;;;;;;;3.30;2.63;;;;;;;;;;5034871;28;20173;-76
2023/08/12 03:31:40;;;;;;;4.97;3.20;;;;;;;;;;5034655;28;20217;-76
2023/08/12 03:34:44;;;;;;;5.80;2.90;;;;;;;;;;5011464;28;20200;-75
2023/08/12 03:37:51;;;;;;;4.63;3.00;;;;;;;;;;5022785;28;20516;-76
2023/08/12 03:40:55;;;;;;;3.40;3.10;;;;;;;;;;5011311;28;20212;-76
2023/08/12 03:43:59;;;;;;;7.00;3.23;;;;;;;;;;5034667;28;20509;-76
2023/08/12 03:47:04;;;;;;;5.97;3.33;;;;;;;;;;5011119;28;20196;-76
2023/08/12 03:50:09;;;;;;;5.33;3.60;;;;;;;;;;5022280;28;20196;-76
2023/08/12 03:53:13;;;;;;;8.90;3.60;;;;;;;;;;5033680;28;20180;-76
2023/08/12 03:56:17;;;;;;;4.03;3.63;;;;;;;;;;5011130;28;20518;-76
2023/08/12 03:59:22;;;;;;;3.97;3.20;;;;;;;;;;5033705;28;20181;-76
2023/08/12 04:02:25;;;;;;;5.93;3.20;;;;;;;;;;5022062;28;20220;-76
2023/08/12 04:05:29;;;;;;;6.17;3.20;;;;;;;;;;5022040;28;20517;-76
2023/08/12 04:08:34;;;;;;;4.50;3.43;;;;;;;;;;5010961;28;20176;-75
2023/08/12 04:11:38;;;;;;;4.10;3.33;;;;;;;;;;5021890;28;20259;-75
2023/08/12 04:14:42;;;;;;;6.20;3.70;;;;;;;;;;5022094;28;20208;-75
2023/08/12 04:17:47;;;;;;;5.83;3.60;;;;;;;;;;5010587;28;20173;-76
2023/08/12 04:20:52;;;;;;;4.70;3.00;;;;;;;;;;5021714;28;20212;-76
2023/08/12 04:23:56;;;;;;;4.03;3.63;;;;;;;;;;5034094;28;20169;-75
2023/08/12 04:27:00;;;;;;;6.37;3.57;;;;;;;;;;5021531;28;20208;-75
2023/08/12 04:30:06;;;;;;;6.13;3.40;;;;;;;;;;5021864;28;20185;-76
2023/08/12 04:33:12;;;;;;;6.73;3.70;;;;;;;;;;5033768;28;20646;-76
2023/08/12 04:36:16;;;;;;;4.90;3.40;;;;;;;;;;5021561;28;20513;-75
2023/08/12 04:39:22;;;;;;;4.50;3.30;;;;;;;;;;5033917;28;20188;-75
2023/08/12 04:42:26;;;;;;;4.07;3.63;;;;;;;;;;5021134;28;20220;-74
2023/08/12 04:45:32;;;;;;;4.00;3.60;;;;;;;;;;5010142;28;20192;-75
2023/08/12 04:48:36;;;;;;;4.40;4.00;;;;;;;;;;5010219;28;20651;-75
2023/08/12 04:51:40;;;;;;;4.53;3.27;;;;;;;;;;5021334;28;20220;-74
2023/08/12 04:54:45;;;;;;;5.57;3.50;;;;;;;;;;5032451;28;20208;-75
2023/08/12 04:57:49;;;;;;;6.53;4.13;;;;;;;;;;5021056;28;20196;-75
2023/08/12 05:00:53;;;;;;;5.13;3.80;;;;;;;;;;5032411;28;20565;-75
2023/08/12 05:03:59;;;;;;;7.63;4.23;;;;;;;;;;5009894;28;20177;-74
2023/08/12 05:07:04;;;;;;;4.20;3.80;;;;;;;;;;5021441;28;20259;-75
2023/08/12 05:10:09;;;;;;;5.47;4.07;;;;;;;;;;5021313;28;20184;-75
2023/08/12 05:13:12;;;;;;;3.93;3.30;;;;;;;;;;5020952;28;20177;-75
2023/08/12 05:16:16;;;;;;;4.73;3.60;;;;;;;;;;5020955;28;20193;-75
2023/08/12 05:19:20;;;;;;;4.67;3.57;;;;;;;;;;5020922;28;20199;-75
2023/08/12 05:22:24;;;;;;;5.00;3.70;;;;;;;;;;5020927;28;20220;-75
2023/08/12 05:25:29;;;;;;;4.37;3.97;;;;;;;;;;5020912;28;20173;-75
2023/08/12 05:28:32;;;;;;;4.13;3.50;;;;;;;;;;5021103;28;20181;-75
2023/08/12 05:31:37;;;;;;;4.20;3.80;;;;;;;;;;5032930;28;20216;-75
2023/08/12 05:34:41;;;;;;;5.70;3.70;;;;;;;;;;5020814;28;20678;-75
2023/08/12 05:37:46;;;;;;;5.73;3.97;;;;;;;;;;5033264;28;20188;-75
2023/08/12 05:40:50;;;;;;;4.00;3.60;;;;;;;;;;5032836;28;20209;-75
2023/08/12 05:43:54;;;;;;;5.10;3.37;;;;;;;;;;5032763;28;20181;-74
2023/08/12 05:46:58;;;;;;;8.33;3.90;;;;;;;;;;5020611;28;20173;-75
2023/08/12 05:50:02;;;;;;;6.07;3.60;;;;;;;;;;5032730;28;20181;-74
2023/08/12 05:53:07;;;;;;;5.23;3.60;;;;;;;;;;5032640;28;20536;-74
2023/08/12 05:56:11;;;;;;;4.17;3.87;;;;;;;;;;5036122;28;20695;-75
2023/08/12 05:59:15;;;;;;;6.57;4.00;;;;;;;;;;5036500;28;20635;-75
2023/08/12 06:02:19;;;;;;;5.40;3.80;;;;;;;;;;5036436;28;20220;-74
2023/08/12 06:05:23;;;;;;;7.20;3.53;;;;;;;;;;5036438;28;20177;-75
2023/08/12 06:08:27;;;;;;;4.40;4.00;;;;;;;;;;5036355;28;20177;-75
2023/08/12 06:11:31;;;;;;;3.53;3.23;;;;;;;;;;5036236;28;20234;-75
2023/08/12 06:14:39;;;;;;;3.67;3.17;;;;;;;;;;5023986;28;20216;-75
2023/08/12 06:17:43;;;;;;;5.00;3.33;;;;;;;;;;5036190;28;20211;-75
2023/08/12 06:20:47;;;;;;;4.63;3.83;;;;;;;;;;5036123;28;20216;-75
2023/08/12 06:23:51;;;;;;;5.33;3.80;;;;;;;;;;5036042;28;20181;-74
2023/08/12 06:26:55;;;;;;;4.00;3.57;;;;;;;;;;5035880;28;20197;-73
2023/08/12 06:29:59;;;;;;;4.40;3.50;;;;;;;;;;5073395;28;20179;-74
2023/08/12 06:33:03;;;;;;;4.63;2.83;;;;;;;;;;5052172;28;20184;-73
2023/08/12 06:36:08;;;;;;;4.40;3.30;;;;;;;;;;5063386;28;20208;-74
2023/08/12 06:39:12;;;;;;;4.13;3.73;;;;;;;;;;5074867;28;20642;-71
2023/08/12 06:42:16;;;;;;;5.17;3.20;;;;;;;;;;5075572;28;20207;-71
2023/08/12 06:45:22;;;;;;;5.43;3.30;;;;;;;;;;5074859;28;20176;-71
2023/08/12 06:48:26;;;;;;;6.20;3.40;;;;;;;;;;5075487;28;20198;-73
2023/08/12 06:51:30;;;;;;;3.77;3.30;;;;;;;;;;5075383;28;20211;-71
2023/08/12 06:54:34;;;;;;;4.57;3.40;;;;;;;;;;5063084;28;20527;-74
2023/08/12 06:57:38;;;;;;;6.27;3.60;;;;;;;;;;5075439;28;20184;-73
2023/08/12 07:00:42;;;;;;;6.87;3.60;;;;;;;;;;5075306;28;20642;-73
2023/08/12 07:03:46;;;;;;;5.40;3.53;;;;;;;;;;5075276;28;20175;-74
2023/08/12 07:06:51;;;;;;;5.03;3.90;;;;;;;;;;5074520;28;20171;-71
2023/08/12 07:09:55;;;;;;;3.50;3.20;;;;;;;;;;5075228;28;20180;-71
2023/08/12 07:12:59;;;;;;;4.50;3.67;;;;;;;;;;5075164;28;20511;-71
2023/08/12 07:16:03;;;;;;;3.27;2.97;;;;;;;;;;5075020;28;20207;-71
2023/08/12 07:19:07;;;;;;;5.73;3.00;;;;;;;;;;5074996;28;20179;-71
2023/08/12 07:22:11;;;;;;;3.67;3.37;;;;;;;;;;5074936;28;20692;-73
2023/08/12 07:25:15;;;;;;;4.17;3.27;;;;;;;;;;5075045;28;20179;-72
2023/08/12 07:28:19;;;;;;;3.80;3.43;;;;;;;;;;5074900;28;20179;-71
2023/08/12 07:31:23;;;;;;;3.73;3.17;;;;;;;;;;5062579;28;20215;-71
2023/08/12 07:34:27;;;;;;;4.03;3.10;;;;;;;;;;5074726;28;20175;-73
2023/08/12 07:37:32;;;;;;;3.83;3.10;;;;;;;;;;5074951;28;20171;-74
2023/08/12 07:40:36;;;;;;;4.23;3.40;;;;;;;;;;5074741;28;20176;-73
2023/08/12 07:43:40;;;;;;;5.37;3.33;;;;;;;;;;5074499;28;20179;-73
2023/08/12 07:46:44;;;;;;;14.50;3.40;;;;;;;;;;5074606;28;20175;-74
2023/08/12 07:49:48;;;;;;;4.77;3.30;;;;;;;;;;5074349;28;20184;-74
2023/08/12 07:52:52;;;;;;;7.47;3.00;;;;;;;;;;5074642;28;20174;-74
2023/08/12 07:55:56;;;;;;;7.10;3.20;;;;;;;;;;5062127;28;20217;-73
2023/08/12 07:59:00;;;;;;;5.97;3.20;;;;;;;;;;5061932;28;20172;-73
2023/08/12 08:02:04;;;;;;;2.90;2.60;;;;;;;;;;5074109;28;20219;-74
2023/08/12 08:05:09;;;;;;;4.10;2.70;;;;;;;;;;5074092;28;20179;-74
2023/08/12 08:08:13;;;;;;;3.97;3.30;;;;;;;;;;5074021;28;20203;-74
2023/08/12 08:11:17;;;;;;;4.47;2.70;;;;;;;;;;5073931;28;20211;-72
2023/08/12 08:14:21;;;;;;;4.80;2.85;;;;;;;;;;5062058;28;20515;-73
2023/08/12 08:17:26;;;;;;;4.47;2.92;;;;;;;;;;5049887;28;20185;-73
2023/08/12 08:20:30;;;;;;;4.15;2.78;;;;;;;;;;5061683;28;20173;-72
2023/08/12 08:23:34;;;;;;;3.90;2.55;;;;;;;;;;5061739;28;20178;-73
2023/08/12 08:26:40;;;;;;;5.65;2.60;;;;;;;;;;5061396;28;20194;-73
2023/08/12 08:29:44;;;;;;;2.95;2.67;;;;;;;;;;5061455;28;20174;-72
2023/08/12 08:32:49;;;;;;;4.28;2.50;;;;;;;;;;5074269;28;20207;-72
2023/08/12 08:35:54;;;;;;;3.58;2.80;;;;;;;;;;5073422;28;20219;-72
2023/08/12 08:38:58;;;;;;;3.17;2.40;;;;;;;;;;5073549;28;20176;-72
2023/08/12 08:42:04;;;;;;;3.65;2.80;;;;;;;;;;5073481;28;20566;-72
2023/08/12 08:45:12;;;;;;;7.75;3.20;;;;;;;;;;5073407;28;20190;-72
2023/08/12 08:48:17;;;;;;;6.50;2.72;;;;;;;;;;5073629;28;20204;-72
2023/08/12 08:51:21;;;;;;;5.97;2.80;;;;;;;;;;5061151;28;20554;-72
2023/08/12 08:54:26;;;;;;;11.48;2.70;;;;;;;;;;5060904;28;20180;-72
2023/08/12 08:57:32;;;;;;;4.90;2.88;;;;;;;;;;5050122;28;20191;-72
2023/08/12 09:00:38;;;;;;;6.80;2.88;;;;;;;;;;5072350;28;20196;-72
2023/08/12 09:03:43;;;;;;;4.18;2.75;;;;;;;;;;5061198;28;20174;-72
2023/08/12 09:06:48;;;;;;;9.77;3.15;;;;;;;;;;5073150;28;20172;-72
2023/08/12 09:09:53;;;;;;;6.40;2.90;;;;;;;;;;5073426;28;20506;-72
2023/08/12 09:12:58;;;;;;;3.85;2.70;;;;;;;;;;5073044;28;20203;-72
2023/08/12 09:16:02;;;;;;;5.50;2.60;;;;;;;;;;5073370;28;20214;-72
2023/08/12 09:19:06;;;;;;;3.97;2.70;;;;;;;;;;5073360;28;20184;-72
2023/08/12 09:22:11;;;;;;;3.83;2.60;;;;;;;;;;5072929;28;20219;-72
2023/08/12 09:25:20;;;;;;;3.60;2.45;;;;;;;;;;5073298;28;20183;-72
2023/08/12 09:28:24;;;;;;;5.72;2.65;;;;;;;;;;5073277;28;20176;-72
2023/08/12 09:31:30;;;;;;;6.47;2.47;;;;;;;;;;5077207;28;20215;-72
2023/08/12 09:34:34;;;;;;;4.55;2.70;;;;;;;;;;5077077;28;20176;-72
2023/08/12 09:37:38;;;;;;;3.17;2.80;;;;;;;;;;5064906;28;20192;-72
2023/08/12 09:40:46;;;;;;;5.38;2.88;;;;;;;;;;5077785;28;20195;-72
2023/08/12 09:43:51;;;;;;;3.92;2.83;;;;;;;;;;5077059;28;20176;-72
2023/08/12 09:46:58;;;;;;;6.85;3.00;;;;;;;;;;5076981;28;20176;-72
2023/08/12 09:50:03;;;;;;;3.70;2.72;;;;;;;;;;5077039;28;20176;-71
2023/08/12 09:53:08;;;;;;;5.55;2.97;;;;;;;;;;5064875;28;20505;-72
2023/08/12 09:56:13;;;;;;;3.80;2.55;;;;;;;;;;5077087;28;20204;-72
2023/08/12 09:59:22;;;;;;;5.28;2.50;;;;;;;;;;5052987;28;20199;-72
2023/08/12 10:02:27;;;;;;;4.50;2.83;;;;;;;;;;5076661;28;20211;-72
2023/08/12 10:05:32;;;;;;;5.30;2.85;;;;;;;;;;5076410;28;20199;-72
2023/08/12 10:08:37;;;;;;;3.28;2.95;;;;;;;;;;5076366;28;20172;-72
2023/08/12 10:11:43;;;;;;;2.85;2.55;;;;;;;;;;5064167;28;20674;-72
2023/08/12 10:14:47;;;;;;;3.30;2.72;;;;;;;;;;5076307;28;20180;-72
2023/08/12 10:17:52;;;;;;;8.65;2.88;;;;;;;;;;5076508;28;20184;-72
2023/08/12 10:21:00;;;;;;;3.58;2.83;;;;;;;;;;5076243;28;20215;-72
2023/08/12 10:24:05;;;;;;;3.03;2.78;;;;;;;;;;5075554;28;20176;-72
2023/08/12 10:27:12;;;;;;;5.90;2.45;;;;;;;;;;5076006;28;20536;-72
2023/08/12 10:30:17;;;;;;;4.97;2.67;;;;;;;;;;5075979;28;20525;-72
2023/08/12 10:33:21;;;;;;;3.60;2.40;;;;;;;;;;5075473;28;20522;-72
2023/08/12 10:36:27;;;;;;;3.03;2.55;;;;;;;;;;5075734;28;20223;-72
2023/08/12 10:39:32;;;;;;;5.65;2.88;;;;;;;;;;5075798;28;20670;-72
2023/08/12 10:42:47;;;;;;;3.92;2.75;;;;;;;;;;5062223;28;20701;-72
2023/08/12 10:45:54;;;;;;;3.45;2.72;;;;;;;;;;5075947;28;20624;-72
2023/08/12 10:49:11;;;;;;;3.85;2.85;;;;;;;;;;5063261;28;20199;-72
2023/08/12 10:52:32;;;;;;;5.50;2.50;;;;;;;;;;5075524;28;20212;-72
2023/08/12 10:55:36;;;;;;;3.65;2.45;;;;;;;;;;5051628;28;20184;-72
2023/08/12 10:58:43;;;;;;;4.30;2.72;;;;;;;;;;5075353;28;20184;-72
2023/08/12 11:01:48;;;;;;;3.80;2.53;;;;;;;;;;5075197;28;20216;-72
2023/08/12 11:05:08;;;;;;;2.70;2.25;;;;;;;;;;5075352;28;20180;-72
2023/08/12 11:08:13;;;;;;;4.20;2.53;;;;;;;;;;5075590;28;20172;-71
2023/08/12 11:11:24;;;;;;;2.85;2.42;;;;;;;;;;5075432;28;20215;-71
2023/08/12 11:14:29;;;;;;;5.30;2.72;;;;;;;;;;5075423;28;20184;-72
2023/08/12 11:17:45;;;;;;;5.45;2.30;;;;;;;;;;5062971;28;20208;-72
2023/08/12 11:20:50;;;;;;;2.50;2.30;;;;;;;;;;5062921;28;20566;-72
2023/08/12 11:23:54;;;;;;;3.40;2.88;;;;;;;;;;5075063;28;20188;-72
2023/08/12 11:27:00;;;;;;;5.80;2.45;;;;;;;;;;5075072;28;20195;-72
2023/08/12 11:30:05;;;;;;;3.95;2.47;;;;;;;;;;5075121;28;20180;-72
2023/08/12 11:33:18;;;;;;;5.20;2.95;;;;;;;;;;5040620;28;20180;-72
2023/08/12 11:36:22;;;;;;;2.53;2.30;;;;;;;;;;5062585;28;20203;-72
2023/08/12 11:39:26;;;;;;;4.72;2.13;;;;;;;;;;5074785;28;20175;-72
2023/08/12 11:42:31;;;;;;;3.35;2.80;;;;;;;;;;5074466;28;20227;-72
2023/08/12 11:45:37;;;;;;;6.78;2.30;;;;;;;;;;5074492;28;20196;-72
2023/08/12 11:48:43;;;;;;;4.65;2.45;;;;;;;;;;5074458;28;20192;-72
2023/08/12 11:51:48;;;;;;;4.40;2.47;;;;;;;;;;5074408;28;20219;-72
2023/08/12 11:54:53;;;;;;;2.63;2.42;;;;;;;;;;5039225;28;20516;-72
2023/08/12 11:57:58;;;;;;;8.85;2.55;;;;;;;;;;5062091;28;20204;-72
2023/08/12 12:01:02;;;;;;;4.03;2.17;;;;;;;;;;5074491;28;20216;-73
2023/08/12 12:04:06;;;;;;;2.90;2.45;;;;;;;;;;5074152;28;20172;-72
2023/08/12 12:07:21;;;;;;;2.78;2.40;;;;;;;;;;5074094;28;20168;-72
2023/08/12 12:10:31;;;;;;;2.55;2.35;;;;;;;;;;5073973;28;20180;-72
2023/08/12 12:13:35;;;;;;;3.72;2.58;;;;;;;;;;5074326;28;20631;-72
2023/08/12 12:16:44;;;;;;;4.13;2.50;;;;;;;;;;5073890;28;20681;-71
2023/08/12 12:19:59;;;;;;;2.78;2.45;;;;;;;;;;5061628;28;20187;-72
2023/08/12 12:23:07;;;;;;;3.58;2.40;;;;;;;;;;5050138;28;20192;-72
2023/08/12 12:26:12;;;;;;;3.10;2.80;;;;;;;;;;5073723;28;20207;-72
2023/08/12 12:29:15;;;;;;;3.03;2.63;;;;;;;;;;5073654;28;20183;-72
2023/08/12 12:32:20;;;;;;;5.35;2.67;;;;;;;;;;5073712;28;20219;-72
2023/08/12 12:35:25;;;;;;;4.55;2.13;;;;;;;;;;5073808;28;20176;-72
2023/08/12 12:38:29;;;;;;;7.40;2.95;;;;;;;;;;5073864;28;20176;-72
2023/08/12 12:41:33;;;;;;;4.57;2.83;;;;;;;;;;5061069;28;20211;-72
2023/08/12 12:44:37;;;;;;;4.05;2.33;;;;;;;;;;5061271;28;20180;-71
2023/08/12 12:47:42;;;;;;;3.28;2.55;;;;;;;;;;5061102;28;20191;-71
2023/08/12 12:50:46;;;;;;;13.43;2.78;;;;;;;;;;5061032;28;20207;-71
2023/08/12 12:53:50;;;;;;;3.95;2.42;;;;;;;;;;5073334;28;20622;-72
2023/08/12 12:56:54;;;;;;;3.38;2.40;;;;;;;;;;5073318;28;20208;-72
2023/08/12 12:59:58;;;;;;;5.80;2.25;;;;;;;;;;5061170;28;20626;-72
2023/08/12 13:03:03;;;;;;;17.55;2.78;;;;;;;;;;5073518;28;20179;-72
2023/08/12 13:06:07;;;;;;;3.85;2.50;;;;;;;;;;5072261;28;20179;-72
2023/08/12 13:09:11;;;;;;;5.15;2.95;;;;;;;;;;5049641;28;20172;-72
2023/08/12 13:12:14;;;;;;;2.42;2.20;;;;;;;;;;5049407;28;20215;-72
2023/08/12 13:15:18;;;;;;;6.15;2.40;;;;;;;;;;5073182;28;20180;-72
2023/08/12 13:18:23;;;;;;;4.88;2.70;;;;;;;;;;5073276;28;20207;-72
2023/08/12 13:21:27;;;;;;;4.82;2.33;;;;;;;;;;5073114;28;20550;-72
2023/08/12 13:24:31;;;;;;;3.70;2.40;;;;;;;;;;5073296;28;20615;-72
2023/08/12 13:27:35;;;;;;;2.60;2.25;;;;;;;;;;5062006;28;20199;-72
2023/08/12 13:30:39;;;;;;;3.10;2.15;;;;;;;;;;5060689;28;20183;-72
2023/08/12 13:33:43;;;;;;;3.28;2.42;;;;;;;;;;5072966;28;20195;-72
2023/08/12 13:36:47;;;;;;;2.70;2.50;;;;;;;;;;5072973;28;20211;-72
2023/08/12 13:39:52;;;;;;;7.20;2.40;;;;;;;;;;5073589;28;20180;-73
2023/08/12 13:42:56;;;;;;;4.90;2.83;;;;;;;;;;5073389;28;20180;-72
2023/08/12 13:46:01;;;;;;;3.22;2.20;;;;;;;;;;5072924;28;20527;-72
2023/08/12 13:49:05;;;;;;;6.18;2.60;;;;;;;;;;5072997;28;20168;-72
2023/08/12 13:52:10;;;;;;;6.63;2.47;;;;;;;;;;5060505;28;20220;-72
2023/08/12 13:55:14;;;;;;;3.80;2.10;;;;;;;;;;5060575;28;20200;-72
2023/08/12 13:58:18;;;;;;;2.35;2.15;;;;;;;;;;5060747;28;20207;-72
2023/08/12 14:01:22;;;;;;;3.40;2.30;;;;;;;;;;5072614;28;20219;-72
2023/08/12 14:04:27;;;;;;;2.60;2.17;;;;;;;;;;5072759;28;20184;-72
2023/08/12 14:07:31;;;;;;;3.92;2.17;;;;;;;;;;5072811;28;20504;-72
2023/08/12 14:10:35;;;;;;;5.85;2.15;;;;;;;;;;5072847;28;20172;-72
2023/08/12 14:13:39;;;;;;;5.35;2.20;;;;;;;;;;5072911;28;20176;-71
2023/08/12 14:16:43;;;;;;;4.85;2.10;;;;;;;;;;5062945;28;20518;-72
2023/08/12 14:19:59;;;;;;;4.70;1.98;;;;;;;;;;5076600;28;20180;-72
2023/08/12 14:23:04;;;;;;;22.27;3.00;;;;;;;;;;5052499;28;20527;-71
2023/08/12 14:26:07;;;;;;;4.75;2.25;;;;;;;;;;5076463;28;20203;-72
2023/08/12 14:29:12;;;;;;;2.65;2.20;;;;;;;;;;5076088;28;20176;-72
2023/08/12 14:32:18;;;;;;;4.20;2.42;;;;;;;;;;5076015;28;20215;-72
2023/08/12 14:35:22;;;;;;;3.25;2.42;;;;;;;;;;5063794;28;20184;-72
2023/08/12 14:38:26;;;;;;;3.38;2.28;;;;;;;;;;5063395;28;20212;-72
2023/08/12 14:41:30;;;;;;;7.25;2.42;;;;;;;;;;5075569;28;20223;-72
2023/08/12 14:44:35;;;;;;;6.60;2.58;;;;;;;;;;5075832;28;20172;-72
2023/08/12 14:47:38;;;;;;;5.90;2.33;;;;;;;;;;5063670;28;20512;-72
2023/08/12 14:50:43;;;;;;;4.18;2.53;;;;;;;;;;5075916;28;20183;-72
2023/08/12 14:53:47;;;;;;;3.60;2.15;;;;;;;;;;5075417;28;20184;-71
2023/08/12 14:56:51;;;;;;;4.78;2.40;;;;;;;;;;5063318;28;20526;-71
2023/08/12 14:59:55;;;;;;;4.63;2.30;;;;;;;;;;5063052;28;20179;-72
2023/08/12 15:02:59;;;;;;;5.80;2.25;;;;;;;;;;5075583;28;20175;-72
2023/08/12 15:06:04;;;;;;;9.30;2.53;;;;;;;;;;5063143;28;20184;-71
2023/08/12 15:09:09;;;;;;;4.88;2.53;;;;;;;;;;5075224;28;20191;-71
2023/08/12 15:12:13;;;;;;;3.90;2.22;;;;;;;;;;5075011;28;20220;-72
2023/08/12 15:15:17;;;;;;;5.32;2.40;;;;;;;;;;5062645;28;20524;-71
2023/08/12 15:18:22;;;;;;;5.00;2.35;;;;;;;;;;5075169;28;20203;-72
2023/08/12 15:21:27;;;;;;;3.22;2.20;;;;;;;;;;5074867;28;20211;-72
2023/08/12 15:24:31;;;;;;;8.10;2.33;;;;;;;;;;5074864;28;20199;-72
2023/08/12 15:27:35;;;;;;;4.40;2.38;;;;;;;;;;5074469;28;20662;-72
2023/08/12 15:30:39;;;;;;;4.25;2.60;;;;;;;;;;5074782;28;20639;-71
2023/08/12 15:33:43;;;;;;;3.38;1.80;;;;;;;;;;5062653;28;20184;-72
2023/08/12 15:36:47;;;;;;;8.48;2.45;;;;;;;;;;5074789;28;20171;-72
2023/08/12 15:39:51;;;;;;;10.93;2.35;;;;;;;;;;5074633;28;20203;-72
2023/08/12 15:42:55;;;;;;;9.18;2.97;;;;;;;;;;5062315;28;20200;-72
2023/08/12 15:45:59;;;;;;;8.88;2.35;;;;;;;;;;5050808;28;20199;-72
2023/08/12 15:49:05;;;;;;;5.50;2.55;;;;;;;;;;5074424;28;20194;-72
2023/08/12 15:52:09;;;;;;;4.55;2.03;;;;;;;;;;5062141;28;20214;-72
2023/08/12 15:55:13;;;;;;;2.53;1.90;;;;;;;;;;5074573;28;20182;-72
2023/08/12 15:58:18;;;;;;;4.05;1.80;;;;;;;;;;5074476;28;20214;-72
2023/08/12 16:01:22;;;;;;;8.88;2.17;;;;;;;;;;5074226;28;20213;-72
2023/08/12 16:04:26;;;;;;;5.40;1.90;;;;;;;;;;5074134;28;20194;-72
2023/08/12 16:07:31;;;;;;;5.60;2.15;;;;;;;;;;5074097;28;20182;-72
2023/08/12 16:10:35;;;;;;;3.33;2.30;;;;;;;;;;5073973;28;20633;-72
2023/08/12 16:13:39;;;;;;;4.13;2.05;;;;;;;;;;5074315;28;20182;-72
2023/08/12 16:16:44;;;;;;;4.10;2.08;;;;;;;;;;5073996;28;20179;-72
2023/08/12 16:19:48;;;;;;;6.88;1.90;;;;;;;;;;5073946;28;20634;-72
2023/08/12 16:22:52;;;;;;;21.15;3.17;;;;;;;;;;5061771;28;20202;-72
2023/08/12 16:25:57;;;;;;;3.97;2.22;;;;;;;;;;5073703;28;20199;-72
2023/08/12 16:29:02;;;;;;;1.80;1.63;;;;;;;;;;5061513;28;20633;-72
2023/08/12 16:32:06;;;;;;;19.85;2.92;;;;;;;;;;5073675;28;20216;-72
2023/08/12 16:35:11;;;;;;;10.60;2.60;;;;;;;;;;5073894;28;20178;-72
2023/08/12 16:38:16;;;;;;;2.20;1.55;;;;;;;;;;5073699;28;20211;-72
2023/08/12 16:41:20;;;;;;;3.03;2.00;;;;;;;;;;5061484;28;20222;-72
2023/08/12 16:44:24;;;;;;;5.38;2.00;;;;;;;;;;5072721;28;20183;-72
2023/08/12 16:47:28;;;;;;;6.82;1.90;;;;;;;;;;5073456;28;20194;-72
2023/08/12 16:50:32;;;;;;;3.80;1.67;;;;;;;;;;5073326;28;20533;-72
2023/08/12 16:53:36;;;;;;;3.25;1.85;;;;;;;;;;5073685;28;20182;-72
2023/08/12 16:56:41;;;;;;;2.25;1.60;;;;;;;;;;5061093;28;20173;-72
2023/08/12 16:59:45;;;;;;;3.33;1.88;;;;;;;;;;5061084;28;20202;-71
2023/08/12 17:02:49;;;;;;;2.63;1.58;;;;;;;;;;5060882;28;20222;-71
2023/08/12 17:05:53;;;;;;;2.72;2.08;;;;;;;;;;5073260;28;20188;-73
2023/08/12 17:08:57;;;;;;;3.25;1.65;;;;;;;;;;5073419;28;20187;-72
2023/08/12 17:12:01;;;;;;;2.65;1.75;;;;;;;;;;5073040;28;20213;-71
2023/08/12 17:15:06;;;;;;;3.55;1.80;;;;;;;;;;5060827;28;20525;-71
2023/08/12 17:18:10;;;;;;;3.33;1.70;;;;;;;;;;5072979;28;20222;-72
2023/08/12 17:21:14;;;;;;;2.65;1.67;;;;;;;;;;5072945;28;20214;-71
2023/08/12 17:24:19;;;;;;;3.25;1.80;;;;;;;;;;5060636;28;20196;-71
2023/08/12 17:27:23;;;;;;;2.15;1.75;;;;;;;;;;5060598;28;20212;-72
2023/08/12 17:30:27;;;;;;;2.50;1.70;;;;;;;;;;5072870;28;20192;-72
2023/08/12 17:33:31;;;;;;;3.92;1.70;;;;;;;;;;5060937;28;20181;-71
2023/08/12 17:36:35;;;;;;;4.05;1.60;;;;;;;;;;5073028;28;20182;-72
2023/08/12 17:39:39;;;;;;;4.40;1.85;;;;;;;;;;5072751;28;20226;-72
2023/08/12 17:42:43;;;;;;;3.15;1.75;;;;;;;;;;5072773;28;20230;-71
2023/08/12 17:45:48;;;;;;;3.42;1.75;;;;;;;;;;5072835;28;20633;-72
2023/08/12 17:48:52;;;;;;;2.70;1.80;;;;;;;;;;5072998;28;20200;-71
2023/08/12 17:51:56;;;;;;;6.78;2.10;;;;;;;;;;5063601;28;20217;-71
2023/08/12 17:55:00;;;;;;;4.05;2.00;;;;;;;;;;5076745;28;20183;-72
2023/08/12 17:58:05;;;;;;;4.80;1.83;;;;;;;;;;5076381;28;20223;-72
2023/08/12 18:01:09;;;;;;;4.80;1.92;;;;;;;;;;5076573;28;20207;-72
2023/08/12 18:04:13;;;;;;;3.30;1.85;;;;;;;;;;5076654;28;20183;-72
2023/08/12 18:07:17;;;;;;;5.63;1.65;;;;;;;;;;5076357;28;20181;-71
2023/08/12 18:10:23;;;;;;;6.25;1.73;;;;;;;;;;5076840;28;20169;-72
2023/08/12 18:13:27;;;;;;;5.78;1.90;;;;;;;;;;5076486;28;20179;-73
2023/08/12 18:16:33;;;;;;;3.10;2.00;;;;;;;;;;5064212;28;20175;-72
2023/08/12 18:19:37;;;;;;;4.33;1.83;;;;;;;;;;5076618;28;20547;-72
2023/08/12 18:22:41;;;;;;;4.83;1.90;;;;;;;;;;5076871;28;20209;-72
2023/08/12 18:25:45;;;;;;;4.37;1.70;;;;;;;;;;5052641;28;20177;-73
2023/08/12 18:28:49;;;;;;;6.83;1.80;;;;;;;;;;5052421;28;20507;-72